Wanamakers, Pennsylvania
Current Conditions -  °F | °C
As of 11:54 AM on Friday 24 Oct 2014 (Local Time) from KRDG Reporting Station
Few Clouds Few Clouds  
Wind Chill: 63°   Ceiling: Unl
Heat Index: 63°   Visibility: 10mi
Dew Point: 43°   Wind: 16mph
Humidity: 48%   Direction: 340°NNW
Pressure: 29.89"   Gusts: 25mph
Location:  40.6329°N, 75.8768°W
Report Text: KRDG 241554Z 34014G22KT 10SM FEW045 17/06 A2989 RMK AO2 PK WND 32026/1500 SLP124 T01720061
Loading
Personal Weather Stations






























Interactive Weather Map
Tropical Storm Tracking
New forecast layout! Learn more

10-Day Weather Forecast

Advertisements
Track Severe Weather on mobile